Terminal Aerodrome Forecast
Issued by NWS

Home | Current Version | Previous Version | Text Only | Print | Product List | Glossary On
Versions: 1 2 3 4 5 6 7 8 9 10 11 12 13 14 15 16 17 18 19 20 21 22 23 24 25 26 27 28 29 30 31
000
FTUS41 KBUF 301730
TAFJHW
TAF
KJHW 301730Z 3018/3118 21007KT P6SM VCSH SCT020 BKN035
     FM302300 00000KT P6SM BKN070
     FM310200 VRB03KT P6SM SCT050
     FM310300 18004KT P6SM FEW040
     FM310800 21007KT 2SM BR FEW060
     FM311400 24006KT P6SM FEW060
      AMD LTD TO CLD VIS AND WIND=

USA.gov is the U.S. government's official web portal to all federal, state and local government web resources and services.